Terminal Aerodrome Forecast
Issued by NWS

Home | Current Version | Previous Version | Text Only | Print | Product List | Glossary On
Versions: 1 2 3 4 5 6 7 8 9 10 11 12
000
FTUS46 KSGX 302300
TAFONT
TAF
KONT 302320Z 3100/0106 25012KT P6SM SKC
     FM310400 VRB05KT P6SM FEW200
      TEMPO 3112/3115 5SM HZ FEW005 FEW200
     FM312100 25012KT P6SM SKC
     FM010400 VRB05KT P6SM SKC=

USA.gov is the U.S. government's official web portal to all federal, state and local government web resources and services.